sensor_id;sensor_type;location;lat;lon;timestamp;temperature;humidity
480;DHT22;226;48.606;9.096;2024-03-02T09:45:23;9.00;65.00
480;DHT22;226;48.606;9.096;2024-03-02T09:47:51;9.20;63.70
480;DHT22;226;48.606;9.096;2024-03-02T09:50:21;9.30;65.20
480;DHT22;226;48.606;9.096;2024-03-02T09:52:49;9.40;65.40
480;DHT22;226;48.606;9.096;2024-03-02T09:55:18;9.50;64.30
480;DHT22;226;48.606;9.096;2024-03-02T09:57:47;9.70;64.00
480;DHT22;226;48.606;9.096;2024-03-02T10:00:17;9.80;59.00
480;DHT22;226;48.606;9.096;2024-03-02T10:02:46;9.90;59.00
480;DHT22;226;48.606;9.096;2024-03-02T10:05:25;10.10;57.70
480;DHT22;226;48.606;9.096;2024-03-02T10:08:01;10.30;56.50
480;DHT22;226;48.606;9.096;2024-03-02T10:10:37;10.50;55.70
480;DHT22;226;48.606;9.096;2024-03-02T10:13:07;10.60;55.20
480;DHT22;226;48.606;9.096;2024-03-02T10:15:37;10.60;53.20
480;DHT22;226;48.606;9.096;2024-03-02T10:18:09;10.70;53.60
480;DHT22;226;48.606;9.096;2024-03-02T10:20:40;10.80;54.50
480;DHT22;226;48.606;9.096;2024-03-02T10:23:12;10.90;51.90
480;DHT22;226;48.606;9.096;2024-03-02T10:25:41;10.90;52.00
480;DHT22;226;48.606;9.096;2024-03-02T10:28:23;11.10;52.10
480;DHT22;226;48.606;9.096;2024-03-02T10:30:52;11.10;52.60
480;DHT22;226;48.606;9.096;2024-03-02T10:33:20;11.10;51.70
480;DHT22;226;48.606;9.096;2024-03-02T10:35:50;11.20;51.60
480;DHT22;226;48.606;9.096;2024-03-02T10:38:19;11.50;51.00
480;DHT22;226;48.606;9.096;2024-03-02T10:40:47;11.40;50.60
480;DHT22;226;48.606;9.096;2024-03-02T10:43:17;11.50;51.30
480;DHT22;226;48.606;9.096;2024-03-02T10:45:49;11.60;50.80
480;DHT22;226;48.606;9.096;2024-03-02T10:48:18;11.70;49.90
480;DHT22;226;48.606;9.096;2024-03-02T10:50:50;11.70;49.70
480;DHT22;226;48.606;9.096;2024-03-02T10:53:18;11.80;48.50
480;DHT22;226;48.606;9.096;2024-03-02T10:55:51;11.90;47.50
480;DHT22;226;48.606;9.096;2024-03-02T10:58:27;11.90;46.20
480;DHT22;226;48.606;9.096;2024-03-02T11:01:02;11.90;45.70
480;DHT22;226;48.606;9.096;2024-03-02T11:03:35;12.00;45.00
480;DHT22;226;48.606;9.096;2024-03-02T11:06:08;12.10;48.40
480;DHT22;226;48.606;9.096;2024-03-02T11:08:38;12.20;49.00
480;DHT22;226;48.606;9.096;2024-03-02T11:11:13;12.20;48.20
480;DHT22;226;48.606;9.096;2024-03-02T11:13:46;12.20;48.30
480;DHT22;226;48.606;9.096;2024-03-02T11:16:22;12.30;48.10
480;DHT22;226;48.606;9.096;2024-03-02T11:18:57;12.30;48.60
480;DHT22;226;48.606;9.096;2024-03-02T11:21:28;12.40;48.90
480;DHT22;226;48.606;9.096;2024-03-02T11:24:00;12.50;49.70
480;DHT22;226;48.606;9.096;2024-03-02T11:26:29;12.60;48.50
480;DHT22;226;48.606;9.096;2024-03-02T11:29:06;12.70;48.60
480;DHT22;226;48.606;9.096;2024-03-02T11:31:59;12.70;47.10
480;DHT22;226;48.606;9.096;2024-03-02T11:34:31;12.90;45.90
480;DHT22;226;48.606;9.096;2024-03-02T11:37:02;12.90;45.30
480;DHT22;226;48.606;9.096;2024-03-02T11:39:31;12.90;44.40
480;DHT22;226;48.606;9.096;2024-03-02T11:42:00;12.90;44.70
480;DHT22;226;48.606;9.096;2024-03-02T11:44:28;13.00;44.80
480;DHT22;226;48.606;9.096;2024-03-02T11:46:59;13.10;44.90
480;DHT22;226;48.606;9.096;2024-03-02T11:49:37;13.10;44.10
480;DHT22;226;48.606;9.096;2024-03-02T11:52:08;13.20;43.70
480;DHT22;226;48.606;9.096;2024-03-02T11:54:39;13.10;43.40
480;DHT22;226;48.606;9.096;2024-03-02T11:57:07;13.30;44.50
480;DHT22;226;48.606;9.096;2024-03-02T11:59:36;13.30;43.40
480;DHT22;226;48.606;9.096;2024-03-02T12:02:05;13.70;42.90
480;DHT22;226;48.606;9.096;2024-03-02T12:04:34;13.50;41.70
480;DHT22;226;48.606;9.096;2024-03-02T12:07:03;13.50;41.70
480;DHT22;226;48.606;9.096;2024-03-02T12:09:33;13.50;41.30
480;DHT22;226;48.606;9.096;2024-03-02T12:12:05;13.60;42.00
480;DHT22;226;48.606;9.096;2024-03-02T12:14:35;13.70;42.10
480;DHT22;226;48.606;9.096;2024-03-02T12:17:04;13.60;41.40
480;DHT22;226;48.606;9.096;2024-03-02T12:19:33;13.80;41.70
480;DHT22;226;48.606;9.096;2024-03-02T12:22:01;13.80;38.90
480;DHT22;226;48.606;9.096;2024-03-02T12:24:30;13.80;37.00
480;DHT22;226;48.606;9.096;2024-03-02T12:27:00;13.80;34.50
480;DHT22;226;48.606;9.096;2024-03-02T12:29:28;13.70;35.30
480;DHT22;226;48.606;9.096;2024-03-02T12:31:56;13.50;36.00
480;DHT22;226;48.606;9.096;2024-03-02T12:34:25;13.50;36.90
480;DHT22;226;48.606;9.096;2024-03-02T12:36:54;13.50;36.50
480;DHT22;226;48.606;9.096;2024-03-02T12:39:22;13.60;35.90
480;DHT22;226;48.606;9.096;2024-03-02T12:41:51;13.70;34.50
480;DHT22;226;48.606;9.096;2024-03-02T12:44:22;13.90;32.50
480;DHT22;226;48.606;9.096;2024-03-02T12:46:51;13.90;33.20
480;DHT22;226;48.606;9.096;2024-03-02T12:49:24;13.90;34.00
480;DHT22;226;48.606;9.096;2024-03-02T12:51:54;13.90;34.30
480;DHT22;226;48.606;9.096;2024-03-02T12:54:25;13.90;34.60
480;DHT22;226;48.606;9.096;2024-03-02T12:56:54;14.00;31.60
480;DHT22;226;48.606;9.096;2024-03-02T12:59:26;14.10;32.00
480;DHT22;226;48.606;9.096;2024-03-02T13:01:55;14.10;33.00
480;DHT22;226;48.606;9.096;2024-03-02T13:04:25;14.20;31.50
480;DHT22;226;48.606;9.096;2024-03-02T13:06:55;14.30;31.90
480;DHT22;226;48.606;9.096;2024-03-02T13:09:25;14.40;31.30
480;DHT22;226;48.606;9.096;2024-03-02T13:11:54;14.50;30.50
480;DHT22;226;48.606;9.096;2024-03-02T13:14:23;14.50;30.60
480;DHT22;226;48.606;9.096;2024-03-02T13:16:54;14.50;30.00
480;DHT22;226;48.606;9.096;2024-03-02T13:19:27;14.50;31.00
480;DHT22;226;48.606;9.096;2024-03-02T13:21:58;14.50;31.40
480;DHT22;226;48.606;9.096;2024-03-02T13:24:26;14.60;30.00
480;DHT22;226;48.606;9.096;2024-03-02T13:26:56;14.70;30.70
480;DHT22;226;48.606;9.096;2024-03-02T13:29:25;14.80;28.60
480;DHT22;226;48.606;9.096;2024-03-02T13:31:54;14.80;28.60
480;DHT22;226;48.606;9.096;2024-03-02T13:34:24;14.80;29.90
480;DHT22;226;48.606;9.096;2024-03-02T13:36:52;15.00;29.00
480;DHT22;226;48.606;9.096;2024-03-02T13:39:21;15.00;28.30
480;DHT22;226;48.606;9.096;2024-03-02T13:41:50;15.20;29.90
480;DHT22;226;48.606;9.096;2024-03-02T13:44:24;15.10;28.30
480;DHT22;226;48.606;9.096;2024-03-02T13:46:54;15.00;29.10
480;DHT22;226;48.606;9.096;2024-03-02T13:49:22;15.00;29.00
480;DHT22;226;48.606;9.096;2024-03-02T13:51:50;15.00;28.70
480;DHT22;226;48.606;9.096;2024-03-02T13:54:19;15.00;28.70
480;DHT22;226;48.606;9.096;2024-03-02T13:56:47;15.20;28.60
480;DHT22;226;48.606;9.096;2024-03-02T13:59:15;15.30;29.10
480;DHT22;226;48.606;9.096;2024-03-02T14:01:44;15.40;28.60
480;DHT22;226;48.606;9.096;2024-03-02T14:04:14;15.70;26.30
480;DHT22;226;48.606;9.096;2024-03-02T14:06:43;15.70;25.50
480;DHT22;226;48.606;9.096;2024-03-02T14:09:11;15.80;25.50
480;DHT22;226;48.606;9.096;2024-03-02T14:11:39;15.80;26.50
480;DHT22;226;48.606;9.096;2024-03-02T14:14:08;16.20;23.80
480;DHT22;226;48.606;9.096;2024-03-02T14:16:36;16.60;23.10
480;DHT22;226;48.606;9.096;2024-03-02T14:56:39;20.90;1.00
480;DHT22;226;48.606;9.096;2024-03-02T14:59:07;20.90;1.00
480;DHT22;226;48.606;9.096;2024-03-02T15:01:37;20.80;1.00
480;DHT22;226;48.606;9.096;2024-03-02T15:04:05;20.80;1.00
480;DHT22;226;48.606;9.096;2024-03-02T15:06:34;20.70;1.00
480;DHT22;226;48.606;9.096;2024-03-02T15:09:03;20.60;1.00
480;DHT22;226;48.606;9.096;2024-03-02T15:11:32;19.70;1.00
480;DHT22;226;48.606;9.096;2024-03-02T15:14:01;18.60;1.00
480;DHT22;226;48.606;9.096;2024-03-02T15:16:29;18.00;1.00
480;DHT22;226;48.606;9.096;2024-03-02T15:18:57;17.50;1.00
480;DHT22;226;48.606;9.096;2024-03-02T15:21:26;16.90;1.00
480;DHT22;226;48.606;9.096;2024-03-02T15:23:54;16.60;1.00
480;DHT22;226;48.606;9.096;2024-03-02T15:26:22;16.00;1.00
480;DHT22;226;48.606;9.096;2024-03-02T15:28:52;15.70;1.00
480;DHT22;226;48.606;9.096;2024-03-02T15:31:23;15.50;1.00
480;DHT22;226;48.606;9.096;2024-03-02T15:33:51;15.30;1.00
480;DHT22;226;48.606;9.096;2024-03-02T15:36:20;15.20;1.00
480;DHT22;226;48.606;9.096;2024-03-02T15:38:48;15.10;1.00
480;DHT22;226;48.606;9.096;2024-03-02T15:41:16;15.00;1.00
480;DHT22;226;48.606;9.096;2024-03-02T15:43:45;15.10;1.00
480;DHT22;226;48.606;9.096;2024-03-02T15:46:15;15.00;1.00
480;DHT22;226;48.606;9.096;2024-03-02T15:48:43;14.90;1.00
480;DHT22;226;48.606;9.096;2024-03-02T15:51:12;14.80;1.00
480;DHT22;226;48.606;9.096;2024-03-02T15:53:40;14.80;1.00
480;DHT22;226;48.606;9.096;2024-03-02T15:56:08;14.60;1.00
480;DHT22;226;48.606;9.096;2024-03-02T15:58:37;14.50;1.00
480;DHT22;226;48.606;9.096;2024-03-02T16:01:05;14.50;1.00
480;DHT22;226;48.606;9.096;2024-03-02T16:03:35;14.40;1.00
480;DHT22;226;48.606;9.096;2024-03-02T16:06:04;14.30;1.00
480;DHT22;226;48.606;9.096;2024-03-02T16:08:32;14.30;1.00
480;DHT22;226;48.606;9.096;2024-03-02T16:11:01;14.20;1.00
480;DHT22;226;48.606;9.096;2024-03-02T16:13:30;14.10;1.00
480;DHT22;226;48.606;9.096;2024-03-02T16:15:59;14.00;1.00
480;DHT22;226;48.606;9.096;2024-03-02T16:18:27;13.80;1.00
480;DHT22;226;48.606;9.096;2024-03-02T16:20:57;13.70;1.00
480;DHT22;226;48.606;9.096;2024-03-02T16:23:25;13.50;1.00
480;DHT22;226;48.606;9.096;2024-03-02T16:25:53;13.40;1.00
480;DHT22;226;48.606;9.096;2024-03-02T16:28:22;13.40;1.00
480;DHT22;226;48.606;9.096;2024-03-02T16:30:51;13.30;1.00
480;DHT22;226;48.606;9.096;2024-03-02T16:33:20;13.20;1.00
480;DHT22;226;48.606;9.096;2024-03-02T16:35:48;13.10;1.00
480;DHT22;226;48.606;9.096;2024-03-02T16:38:18;13.10;1.00
480;DHT22;226;48.606;9.096;2024-03-02T16:40:46;13.00;1.00
480;DHT22;226;48.606;9.096;2024-03-02T16:43:14;12.90;1.00
480;DHT22;226;48.606;9.096;2024-03-02T16:45:43;12.90;1.00
480;DHT22;226;48.606;9.096;2024-03-02T16:48:11;12.90;1.00
480;DHT22;226;48.606;9.096;2024-03-02T16:50:39;12.80;1.00
480;DHT22;226;48.606;9.096;2024-03-02T16:53:07;12.80;1.00
480;DHT22;226;48.606;9.096;2024-03-02T16:55:36;12.70;1.00
480;DHT22;226;48.606;9.096;2024-03-02T16:58:04;12.70;1.00
480;DHT22;226;48.606;9.096;2024-03-02T17:00:33;12.70;1.00
480;DHT22;226;48.606;9.096;2024-03-02T17:03:01;12.60;1.00
480;DHT22;226;48.606;9.096;2024-03-02T17:05:29;12.60;1.00
480;DHT22;226;48.606;9.096;2024-03-02T17:07:57;12.50;1.00
480;DHT22;226;48.606;9.096;2024-03-02T17:10:26;12.40;2.00
480;DHT22;226;48.606;9.096;2024-03-02T17:12:55;12.30;3.20
480;DHT22;226;48.606;9.096;2024-03-02T17:15:26;12.20;4.20
480;DHT22;226;48.606;9.096;2024-03-02T17:17:55;12.10;6.50
480;DHT22;226;48.606;9.096;2024-03-02T17:20:23;12.00;8.00
480;DHT22;226;48.606;9.096;2024-03-02T17:22:51;11.90;9.00
480;DHT22;226;48.606;9.096;2024-03-02T17:25:20;11.90;10.10
480;DHT22;226;48.606;9.096;2024-03-02T17:27:48;11.80;11.40
480;DHT22;226;48.606;9.096;2024-03-02T17:30:18;11.80;12.50
480;DHT22;226;48.606;9.096;2024-03-02T17:32:47;11.80;12.60
480;DHT22;226;48.606;9.096;2024-03-02T17:35:16;11.80;13.50
480;DHT22;226;48.606;9.096;2024-03-02T17:37:44;11.70;13.90
480;DHT22;226;48.606;9.096;2024-03-02T17:40:13;11.70;14.40
480;DHT22;226;48.606;9.096;2024-03-02T17:42:41;11.70;14.50
480;DHT22;226;48.606;9.096;2024-03-02T17:45:10;11.70;15.20
480;DHT22;226;48.606;9.096;2024-03-02T17:47:39;11.80;15.20
480;DHT22;226;48.606;9.096;2024-03-02T17:50:08;11.80;15.20
480;DHT22;226;48.606;9.096;2024-03-02T17:52:36;11.80;15.30
480;DHT22;226;48.606;9.096;2024-03-02T17:55:05;11.70;15.10
480;DHT22;226;48.606;9.096;2024-03-02T17:57:34;11.70;15.20
480;DHT22;226;48.606;9.096;2024-03-02T18:00:04;11.70;15.50
480;DHT22;226;48.606;9.096;2024-03-02T18:02:33;11.70;15.70
480;DHT22;226;48.606;9.096;2024-03-02T18:05:03;11.70;15.80
480;DHT22;226;48.606;9.096;2024-03-02T18:07:31;11.70;15.80
480;DHT22;226;48.606;9.096;2024-03-02T18:10:01;11.70;16.00
480;DHT22;226;48.606;9.096;2024-03-02T18:12:30;11.70;16.20
480;DHT22;226;48.606;9.096;2024-03-02T18:14:58;11.70;16.20
480;DHT22;226;48.606;9.096;2024-03-02T18:17:28;11.70;16.50
480;DHT22;226;48.606;9.096;2024-03-02T18:19:57;11.70;17.00
480;DHT22;226;48.606;9.096;2024-03-02T18:22:26;11.20;16.70
480;DHT22;226;48.606;9.096;2024-03-02T18:24:55;11.60;17.00
480;DHT22;226;48.606;9.096;2024-03-02T18:27:23;11.50;17.30
480;DHT22;226;48.606;9.096;2024-03-02T18:29:51;11.50;18.00
480;DHT22;226;48.606;9.096;2024-03-02T18:32:21;11.40;18.60
480;DHT22;226;48.606;9.096;2024-03-02T18:34:49;11.30;19.30
480;DHT22;226;48.606;9.096;2024-03-02T18:37:18;11.30;19.80
480;DHT22;226;48.606;9.096;2024-03-02T18:39:50;11.20;20.40
480;DHT22;226;48.606;9.096;2024-03-02T18:42:18;11.20;20.60
480;DHT22;226;48.606;9.096;2024-03-02T18:44:46;11.20;21.00
480;DHT22;226;48.606;9.096;2024-03-02T18:47:16;11.20;21.10
480;DHT22;226;48.606;9.096;2024-03-02T18:49:45;11.10;21.40
480;DHT22;226;48.606;9.096;2024-03-02T18:52:13;11.10;21.90
480;DHT22;226;48.606;9.096;2024-03-02T18:54:41;11.10;22.30
480;DHT22;226;48.606;9.096;2024-03-02T18:57:11;11.00;22.70
480;DHT22;226;48.606;9.096;2024-03-02T18:59:40;11.00;23.00
480;DHT22;226;48.606;9.096;2024-03-02T19:02:08;10.90;23.00
480;DHT22;226;48.606;9.096;2024-03-02T19:04:36;10.90;23.40
480;DHT22;226;48.606;9.096;2024-03-02T19:07:04;10.90;23.70
480;DHT22;226;48.606;9.096;2024-03-02T19:09:33;10.80;23.80
480;DHT22;226;48.606;9.096;2024-03-02T19:12:01;10.80;24.00
480;DHT22;226;48.606;9.096;2024-03-02T19:14:31;10.70;24.50
480;DHT22;226;48.606;9.096;2024-03-02T19:16:59;10.60;25.40
480;DHT22;226;48.606;9.096;2024-03-02T19:19:27;10.50;24.70
480;DHT22;226;48.606;9.096;2024-03-02T19:21:56;10.50;25.30
480;DHT22;226;48.606;9.096;2024-03-02T19:24:35;10.50;25.50
480;DHT22;226;48.606;9.096;2024-03-02T19:27:04;10.40;25.60
480;DHT22;226;48.606;9.096;2024-03-02T19:29:34;10.40;25.70
480;DHT22;226;48.606;9.096;2024-03-02T19:32:02;10.30;25.40
480;DHT22;226;48.606;9.096;2024-03-02T19:34:38;10.20;26.20
480;DHT22;226;48.606;9.096;2024-03-02T19:37:06;10.20;26.60
480;DHT22;226;48.606;9.096;2024-03-02T19:39:34;10.20;26.60
480;DHT22;226;48.606;9.096;2024-03-02T19:42:09;10.10;26.70
480;DHT22;226;48.606;9.096;2024-03-02T19:44:38;10.00;26.40
480;DHT22;226;48.606;9.096;2024-03-02T19:47:09;9.80;27.80
480;DHT22;226;48.606;9.096;2024-03-02T19:49:41;9.60;29.00
480;DHT22;226;48.606;9.096;2024-03-02T19:52:09;9.40;29.50
480;DHT22;226;48.606;9.096;2024-03-02T19:54:37;9.20;30.00
480;DHT22;226;48.606;9.096;2024-03-02T19:57:06;8.90;30.80
480;DHT22;226;48.606;9.096;2024-03-02T19:59:34;8.70;32.80
480;DHT22;226;48.606;9.096;2024-03-02T20:02:04;8.40;35.50
480;DHT22;226;48.606;9.096;2024-03-02T20:04:37;8.30;37.80
480;DHT22;226;48.606;9.096;2024-03-02T20:07:05;8.20;39.10
480;DHT22;226;48.606;9.096;2024-03-02T20:09:34;8.10;39.10
480;DHT22;226;48.606;9.096;2024-03-02T20:12:03;8.00;40.30
480;DHT22;226;48.606;9.096;2024-03-02T20:14:34;7.90;42.00
480;DHT22;226;48.606;9.096;2024-03-02T20:17:04;7.90;41.80
480;DHT22;226;48.606;9.096;2024-03-02T20:19:32;7.80;41.10
480;DHT22;226;48.606;9.096;2024-03-02T20:22:00;7.70;43.40
480;DHT22;226;48.606;9.096;2024-03-02T20:24:29;7.60;42.70
480;DHT22;226;48.606;9.096;2024-03-02T20:26:57;7.50;43.80
480;DHT22;226;48.606;9.096;2024-03-02T20:29:25;7.40;44.70
480;DHT22;226;48.606;9.096;2024-03-02T20:31:53;7.40;45.20
480;DHT22;226;48.606;9.096;2024-03-02T20:34:23;7.40;44.30
480;DHT22;226;48.606;9.096;2024-03-02T20:36:52;7.40;50.10
480;DHT22;226;48.606;9.096;2024-03-02T20:39:20;7.20;50.40
480;DHT22;226;48.606;9.096;2024-03-02T20:41:49;7.20;49.00
480;DHT22;226;48.606;9.096;2024-03-02T20:44:18;7.20;50.80
480;DHT22;226;48.606;9.096;2024-03-02T20:46:52;7.10;50.60
480;DHT22;226;48.606;9.096;2024-03-02T20:49:22;7.20;50.30
480;DHT22;226;48.606;9.096;2024-03-02T20:51:52;7.00;50.00
480;DHT22;226;48.606;9.096;2024-03-02T20:54:20;6.90;50.60
480;DHT22;226;48.606;9.096;2024-03-02T20:56:49;7.00;51.30
480;DHT22;226;48.606;9.096;2024-03-02T20:59:18;7.00;51.20
480;DHT22;226;48.606;9.096;2024-03-02T21:01:47;7.00;51.40
480;DHT22;226;48.606;9.096;2024-03-02T21:04:16;7.00;51.30
480;DHT22;226;48.606;9.096;2024-03-02T21:06:45;6.90;47.40
480;DHT22;226;48.606;9.096;2024-03-02T21:09:14;6.80;52.10
480;DHT22;226;48.606;9.096;2024-03-02T21:11:42;6.80;54.00
480;DHT22;226;48.606;9.096;2024-03-02T21:14:11;6.60;53.20
480;DHT22;226;48.606;9.096;2024-03-02T21:16:40;6.60;54.20
480;DHT22;226;48.606;9.096;2024-03-02T21:19:08;6.50;55.40
480;DHT22;226;48.606;9.096;2024-03-02T21:21:41;6.50;55.40
480;DHT22;226;48.606;9.096;2024-03-02T21:24:11;6.60;57.10
480;DHT22;226;48.606;9.096;2024-03-02T21:26:39;6.60;55.70
480;DHT22;226;48.606;9.096;2024-03-02T21:29:09;6.70;55.90
480;DHT22;226;48.606;9.096;2024-03-02T21:31:38;6.60;55.20
480;DHT22;226;48.606;9.096;2024-03-02T21:34:06;6.70;53.70
480;DHT22;226;48.606;9.096;2024-03-02T21:36:36;6.60;53.70
480;DHT22;226;48.606;9.096;2024-03-02T21:39:04;6.70;53.40
480;DHT22;226;48.606;9.096;2024-03-02T21:41:34;6.80;52.40
480;DHT22;226;48.606;9.096;2024-03-02T21:44:03;6.80;52.20
480;DHT22;226;48.606;9.096;2024-03-02T21:46:31;6.80;52.10
480;DHT22;226;48.606;9.096;2024-03-02T21:49:00;6.70;49.00
480;DHT22;226;48.606;9.096;2024-03-02T21:51:28;6.90;48.70
480;DHT22;226;48.606;9.096;2024-03-02T21:53:57;6.80;47.60
480;DHT22;226;48.606;9.096;2024-03-02T21:56:26;6.70;48.30
480;DHT22;226;48.606;9.096;2024-03-02T21:58:55;6.50;47.90
480;DHT22;226;48.606;9.096;2024-03-02T22:01:23;6.50;51.80
480;DHT22;226;48.606;9.096;2024-03-02T22:03:54;6.40;53.00
480;DHT22;226;48.606;9.096;2024-03-02T22:06:22;6.80;55.60
480;DHT22;226;48.606;9.096;2024-03-02T22:08:50;6.30;54.70
480;DHT22;226;48.606;9.096;2024-03-02T22:11:18;6.50;54.60
480;DHT22;226;48.606;9.096;2024-03-02T22:13:47;6.50;53.50
480;DHT22;226;48.606;9.096;2024-03-02T22:16:17;6.50;50.90
480;DHT22;226;48.606;9.096;2024-03-02T22:18:45;6.50;50.40
480;DHT22;226;48.606;9.096;2024-03-02T22:21:14;6.40;51.10
480;DHT22;226;48.606;9.096;2024-03-02T22:23:42;6.40;51.90
480;DHT22;226;48.606;9.096;2024-03-02T22:26:10;6.50;51.90
480;DHT22;226;48.606;9.096;2024-03-02T22:28:38;6.60;51.60
480;DHT22;226;48.606;9.096;2024-03-02T22:31:07;6.60;50.20
480;DHT22;226;48.606;9.096;2024-03-02T22:33:37;6.50;51.60
480;DHT22;226;48.606;9.096;2024-03-02T22:36:06;6.40;52.80
480;DHT22;226;48.606;9.096;2024-03-02T22:38:35;6.40;53.10
480;DHT22;226;48.606;9.096;2024-03-02T22:41:03;6.40;53.10
480;DHT22;226;48.606;9.096;2024-03-02T22:43:31;6.30;53.10
480;DHT22;226;48.606;9.096;2024-03-02T22:46:00;6.50;52.70
480;DHT22;226;48.606;9.096;2024-03-02T22:48:28;6.50;50.90
480;DHT22;226;48.606;9.096;2024-03-02T22:50:58;6.30;51.70
480;DHT22;226;48.606;9.096;2024-03-02T22:53:27;6.20;52.70
480;DHT22;226;48.606;9.096;2024-03-02T22:55:55;6.20;53.60
480;DHT22;226;48.606;9.096;2024-03-02T22:58:24;6.20;54.30
480;DHT22;226;48.606;9.096;2024-03-02T23:00:53;6.20;54.50
480;DHT22;226;48.606;9.096;2024-03-02T23:03:24;6.30;55.10
480;DHT22;226;48.606;9.096;2024-03-02T23:05:53;6.30;54.30
480;DHT22;226;48.606;9.096;2024-03-02T23:08:22;6.30;54.10
480;DHT22;226;48.606;9.096;2024-03-02T23:10:51;6.40;53.30
480;DHT22;226;48.606;9.096;2024-03-02T23:13:19;6.40;53.50
480;DHT22;226;48.606;9.096;2024-03-02T23:15:47;6.40;53.00
480;DHT22;226;48.606;9.096;2024-03-02T23:18:16;6.40;51.90
480;DHT22;226;48.606;9.096;2024-03-02T23:20:44;6.40;56.80
480;DHT22;226;48.606;9.096;2024-03-02T23:23:12;6.20;58.40
480;DHT22;226;48.606;9.096;2024-03-02T23:25:42;6.20;61.40
480;DHT22;226;48.606;9.096;2024-03-02T23:28:10;6.20;61.30
480;DHT22;226;48.606;9.096;2024-03-02T23:30:39;6.20;61.90
480;DHT22;226;48.606;9.096;2024-03-02T23:33:07;6.10;64.10
480;DHT22;226;48.606;9.096;2024-03-02T23:35:35;6.10;64.30
480;DHT22;226;48.606;9.096;2024-03-02T23:38:04;6.20;66.10
480;DHT22;226;48.606;9.096;2024-03-02T23:40:32;6.40;64.40
480;DHT22;226;48.606;9.096;2024-03-02T23:43:24;6.20;63.50
480;DHT22;226;48.606;9.096;2024-03-02T23:45:52;6.30;62.80
480;DHT22;226;48.606;9.096;2024-03-02T23:48:22;6.30;62.50
480;DHT22;226;48.606;9.096;2024-03-02T23:50:51;6.30;61.40
480;DHT22;226;48.606;9.096;2024-03-02T23:53:19;6.30;60.90
480;DHT22;226;48.606;9.096;2024-03-02T23:55:47;6.30;61.10
480;DHT22;226;48.606;9.096;2024-03-02T23:58:19;6.40;61.40
